Time;durP1;ratioP1;P1;durP2;ratioP2;P2;SDS_P1;SDS_P2;PMS_P1;PMS_P2;Temp;Humidity;BMP_temperature;BMP_pressure;BME280_temperature;BME280_humidity;BME280_pressure;Samples;Min_cycle;Max_cycle;Signal;HPM_P1;HPM_P2
2021/12/26 00:01:04;;;;;;;10.65;4.45;;;11.20;98.00;;;;;;4953239;28;20027;-64
2021/12/26 00:03:31;;;;;;;6.10;3.70;;;11.30;97.90;;;;;;4953183;28;20031;-64
2021/12/26 00:06:03;;;;;;;10.13;4.45;;;11.30;97.90;;;;;;4952991;28;20034;-64
2021/12/26 00:08:29;;;;;;;9.10;3.70;;;11.20;97.90;;;;;;4951953;28;20035;-64
2021/12/26 00:10:54;;;;;;;7.90;3.70;;;11.30;98.00;;;;;;4950026;28;20591;-64
2021/12/26 00:13:21;;;;;;;6.65;3.45;;;11.30;98.00;;;;;;4955128;28;20031;-64
2021/12/26 00:15:47;;;;;;;10.48;4.32;;;11.30;98.00;;;;;;4954648;28;20118;-64
2021/12/26 00:18:13;;;;;;;9.30;3.88;;;11.30;98.00;;;;;;4956474;28;20028;-64
2021/12/26 00:20:40;;;;;;;8.00;4.13;;;11.30;98.00;;;;;;4956328;28;20590;-64
2021/12/26 00:23:06;;;;;;;6.93;4.35;;;11.30;98.00;;;;;;4952328;28;20039;-64
2021/12/26 00:25:33;;;;;;;9.43;4.53;;;11.30;97.90;;;;;;4957915;28;20019;-64
2021/12/26 00:27:59;;;;;;;9.55;4.93;;;11.30;97.90;;;;;;4956252;28;20020;-64
2021/12/26 00:30:25;;;;;;;9.77;4.60;;;11.30;97.90;;;;;;4956332;28;20028;-64
2021/12/26 00:32:51;;;;;;;14.85;5.18;;;11.20;98.00;;;;;;4956241;28;20118;-64
2021/12/26 00:35:19;;;;;;;9.90;4.70;;;11.30;98.00;;;;;;4953133;28;20023;-64
2021/12/26 00:37:46;;;;;;;13.43;4.90;;;11.30;98.00;;;;;;4955777;28;20073;-64
2021/12/26 00:40:14;;;;;;;11.40;5.57;;;11.30;98.00;;;;;;4956919;28;20045;-64
2021/12/26 00:42:40;;;;;;;11.68;5.63;;;11.30;98.00;;;;;;4956171;28;20015;-64
2021/12/26 00:45:07;;;;;;;9.07;4.65;;;11.30;98.10;;;;;;4955054;28;20456;-64
2021/12/26 00:47:33;;;;;;;13.23;5.85;;;11.20;98.10;;;;;;4955259;28;20092;-64
2021/12/26 00:50:00;;;;;;;14.52;5.95;;;11.30;98.10;;;;;;4952836;28;20495;-64
2021/12/26 00:52:25;;;;;;;14.20;5.72;;;11.20;98.10;;;;;;4957984;28;20472;-64
2021/12/26 00:54:51;;;;;;;11.95;5.28;;;11.20;98.20;;;;;;4955584;28;20025;-64
2021/12/26 00:57:17;;;;;;;8.20;4.78;;;11.20;98.20;;;;;;4955937;28;20147;-64
2021/12/26 00:59:43;;;;;;;10.95;5.20;;;11.20;98.20;;;;;;4956021;28;20105;-64
2021/12/26 01:02:09;;;;;;;12.48;5.57;;;11.20;98.30;;;;;;4951777;28;20035;-64
2021/12/26 01:04:35;;;;;;;11.52;5.15;;;11.20;98.40;;;;;;4957785;28;20024;-64
2021/12/26 01:07:07;;;;;;;9.90;4.90;;;11.20;98.30;;;;;;4955827;28;20174;-64
2021/12/26 01:09:33;;;;;;;11.55;5.03;;;11.20;98.30;;;;;;4955347;28;20039;-63
2021/12/26 01:12:06;;;;;;;9.05;4.80;;;11.30;98.40;;;;;;4955657;28;20422;-63
2021/12/26 01:14:32;;;;;;;11.27;5.20;;;11.30;98.30;;;;;;4954543;28;20037;-65
2021/12/26 01:17:12;;;;;;;8.93;5.03;;;11.30;98.30;;;;;;4952529;28;20051;-64
2021/12/26 01:19:48;;;;;;;9.65;4.57;;;11.30;98.30;;;;;;4969071;28;20068;-64
2021/12/26 01:22:15;;;;;;;9.68;5.18;;;11.30;98.20;;;;;;4956418;28;20126;-64
2021/12/26 01:24:42;;;;;;;8.73;4.05;;;11.30;98.20;;;;;;4955243;28;20468;-64
2021/12/26 01:27:08;;;;;;;8.25;4.47;;;11.30;98.20;;;;;;4953618;28;20028;-64
2021/12/26 01:29:35;;;;;;;9.68;4.38;;;11.30;98.20;;;;;;4954711;28;20073;-64
2021/12/26 01:32:02;;;;;;;8.18;4.60;;;11.30;98.60;;;;;;4951877;28;20380;-64
2021/12/26 01:34:28;;;;;;;12.57;4.93;;;11.30;98.30;;;;;;4957326;28;20047;-64
2021/12/26 01:36:53;;;;;;;12.10;4.82;;;11.30;98.30;;;;;;4955145;28;20495;-64
2021/12/26 01:39:19;;;;;;;8.07;4.45;;;11.30;98.20;;;;;;4955284;28;20107;-64
2021/12/26 01:41:45;;;;;;;9.35;4.50;;;11.30;98.20;;;;;;4955329;28;20084;-64
2021/12/26 01:44:14;;;;;;;7.03;4.28;;;11.40;98.10;;;;;;4951478;28;20032;-64
2021/12/26 01:46:40;;;;;;;8.65;4.03;;;11.30;98.10;;;;;;4956145;28;20031;-64
2021/12/26 01:49:13;;;;;;;7.32;4.30;;;11.40;98.20;;;;;;4954331;28;20028;-64
2021/12/26 01:51:41;;;;;;;8.13;3.80;;;11.40;98.20;;;;;;4954658;28;20031;-64
2021/12/26 01:54:10;;;;;;;9.55;4.13;;;11.40;98.20;;;;;;4955128;28;20571;-65
2021/12/26 01:56:37;;;;;;;7.80;3.65;;;11.40;98.20;;;;;;4954209;28;20196;-64
2021/12/26 01:59:06;;;;;;;8.73;3.38;;;11.40;98.10;;;;;;4951270;28;20053;-64
2021/12/26 02:01:32;;;;;;;6.07;2.78;;;11.40;98.20;;;;;;4956983;28;20034;-64
2021/12/26 02:03:59;;;;;;;4.38;2.78;;;11.40;98.20;;;;;;4954619;28;20062;-64
2021/12/26 02:06:25;;;;;;;6.80;2.88;;;11.40;98.20;;;;;;4954639;28;20032;-64
2021/12/26 02:08:50;;;;;;;6.72;3.00;;;11.40;98.20;;;;;;4954990;28;20475;-64
2021/12/26 02:11:16;;;;;;;4.35;2.90;;;11.40;98.20;;;;;;4950362;28;20090;-64
2021/12/26 02:13:43;;;;;;;6.57;2.75;;;11.40;98.20;;;;;;4955255;28;20027;-64
2021/12/26 02:16:10;;;;;;;5.97;2.33;;;11.50;98.20;;;;;;4955135;28;20031;-64
2021/12/26 02:18:36;;;;;;;7.13;2.35;;;11.50;98.20;;;;;;4954717;28;20019;-64
2021/12/26 02:24:06;;;;;;;7.32;2.60;;;11.50;98.10;;;;;;4954610;28;20038;-64
2021/12/26 02:29:16;;;;;;;5.47;2.15;;;11.40;98.10;;;;;;4937507;28;20252;-64
2021/12/26 02:31:42;;;;;;;6.40;2.03;;;11.40;98.10;;;;;;4954875;28;20027;-64
2021/12/26 02:34:07;;;;;;;8.15;2.00;;;11.40;98.10;;;;;;4955068;28;20076;-64
2021/12/26 02:36:33;;;;;;;6.15;2.20;;;11.40;98.10;;;;;;4953861;28;20035;-64
2021/12/26 02:38:59;;;;;;;4.88;2.10;;;11.40;98.10;;;;;;4953392;28;20031;-64
2021/12/26 02:41:25;;;;;;;6.22;1.95;;;11.40;98.20;;;;;;4952273;28;20027;-64
2021/12/26 02:43:51;;;;;;;4.03;2.00;;;11.40;98.10;;;;;;4952613;28;20436;-64
2021/12/26 02:46:17;;;;;;;4.38;1.95;;;11.40;98.10;;;;;;4954794;28;20487;-64
2021/12/26 02:48:42;;;;;;;4.82;1.88;;;11.40;98.10;;;;;;4954341;28;20030;-64
2021/12/26 02:51:08;;;;;;;5.13;1.70;;;11.50;98.10;;;;;;4953889;28;20031;-64
2021/12/26 02:53:34;;;;;;;6.25;1.90;;;11.40;98.20;;;;;;4953399;28;20015;-64
2021/12/26 02:56:01;;;;;;;4.50;1.77;;;11.40;98.10;;;;;;4950643;28;20047;-65
2021/12/26 02:58:27;;;;;;;4.18;1.48;;;11.40;98.20;;;;;;4956067;28;20468;-64
2021/12/26 03:00:58;;;;;;;5.00;2.03;;;11.40;98.50;;;;;;4954049;28;20086;-64
2021/12/26 03:03:23;;;;;;;5.25;1.90;;;11.40;98.10;;;;;;4954161;28;20024;-64
2021/12/26 03:06:01;;;;;;;5.18;1.55;;;11.40;98.10;;;;;;4953556;28;20038;-64
2021/12/26 03:08:27;;;;;;;6.13;1.70;;;11.40;98.10;;;;;;4952214;28;20035;-64
2021/12/26 03:10:54;;;;;;;3.53;1.70;;;11.30;98.10;;;;;;4951336;28;20342;-64
2021/12/26 03:13:20;;;;;;;5.10;1.65;;;11.40;98.10;;;;;;4955792;28;20114;-65
2021/12/26 03:15:46;;;;;;;4.60;1.70;;;11.40;98.10;;;;;;4953737;28;20110;-64
2021/12/26 03:18:12;;;;;;;5.68;1.70;;;11.40;98.10;;;;;;4953437;28;20127;-65
2021/12/26 03:20:42;;;;;;;9.20;1.98;;;11.40;98.10;;;;;;4953220;28;20018;-64
2021/12/26 03:23:10;;;;;;;3.15;1.38;;;11.40;98.00;;;;;;4934661;28;20028;-64
2021/12/26 03:25:36;;;;;;;4.20;1.80;;;11.40;98.00;;;;;;4962674;28;20054;-64
2021/12/26 03:28:04;;;;;;;5.03;1.67;;;11.40;98.00;;;;;;4953814;28;20032;-64
2021/12/26 03:30:31;;;;;;;8.57;1.90;;;11.40;98.50;;;;;;4953753;28;20476;-66
2021/12/26 03:33:00;;;;;;;6.32;2.03;;;11.30;98.10;;;;;;4953304;28;20129;-65
2021/12/26 03:35:28;;;;;;;6.18;2.17;;;11.30;98.10;;;;;;4951696;28;20023;-65
2021/12/26 03:37:55;;;;;;;5.22;1.67;;;11.30;98.20;;;;;;4951126;28;20023;-65
2021/12/26 03:40:21;;;;;;;5.78;1.83;;;11.20;98.20;;;;;;4955422;28;20035;-65
2021/12/26 03:42:47;;;;;;;5.65;1.70;;;11.20;98.30;;;;;;4953626;28;20038;-65
2021/12/26 03:45:12;;;;;;;5.43;1.63;;;11.30;98.40;;;;;;4953613;28;20028;-64
2021/12/26 03:47:39;;;;;;;4.93;1.52;;;11.20;98.30;;;;;;4952881;28;20053;-65
2021/12/26 03:50:06;;;;;;;5.32;1.55;;;11.30;98.30;;;;;;4950305;28;20128;-65
2021/12/26 03:52:32;;;;;;;3.95;1.63;;;11.30;98.30;;;;;;4958722;28;20016;-64
2021/12/26 03:54:58;;;;;;;5.13;2.00;;;11.30;98.30;;;;;;4956796;28;20038;-64
2021/12/26 03:57:23;;;;;;;5.15;1.67;;;11.30;98.20;;;;;;4956802;28;20051;-64
2021/12/26 03:59:49;;;;;;;4.05;1.50;;;11.30;98.20;;;;;;4956776;28;20015;-65
2021/12/26 04:02:15;;;;;;;5.30;1.92;;;11.30;98.20;;;;;;4952985;28;20035;-65
2021/12/26 04:04:42;;;;;;;5.05;1.60;;;11.30;98.20;;;;;;4957179;28;20026;-64
2021/12/26 04:07:09;;;;;;;4.22;1.65;;;11.30;98.20;;;;;;4956148;28;20061;-65
2021/12/26 04:09:35;;;;;;;5.47;1.90;;;11.30;98.20;;;;;;4956429;28;20031;-65
2021/12/26 04:12:01;;;;;;;4.28;1.33;;;11.30;98.10;;;;;;4956565;28;21500;-64
2021/12/26 04:14:27;;;;;;;3.95;1.30;;;11.40;98.20;;;;;;4955021;28;20027;-64
2021/12/26 04:16:53;;;;;;;4.15;1.33;;;11.40;98.10;;;;;;4954163;28;20100;-64
2021/12/26 04:19:19;;;;;;;6.90;1.55;;;11.30;98.10;;;;;;4956239;28;20456;-64
2021/12/26 04:21:45;;;;;;;5.15;1.52;;;11.30;98.20;;;;;;4956510;28;20502;-65
2021/12/26 04:24:10;;;;;;;8.65;1.35;;;11.30;98.10;;;;;;4956490;28;20027;-64
2021/12/26 04:26:36;;;;;;;5.90;1.33;;;11.30;98.10;;;;;;4955830;28;20372;-64
2021/12/26 04:29:03;;;;;;;4.22;1.13;;;11.30;98.10;;;;;;4952837;28;20042;-64
2021/12/26 04:31:29;;;;;;;6.40;1.10;;;11.30;98.20;;;;;;4957860;28;20031;-64
2021/12/26 04:33:54;;;;;;;5.35;1.73;;;11.30;98.20;;;;;;4956257;28;20115;-64
2021/12/26 04:36:21;;;;;;;4.60;1.30;;;11.30;98.30;;;;;;4956169;28;20055;-65
2021/12/26 04:38:47;;;;;;;4.47;1.10;;;11.30;98.20;;;;;;4956055;28;20084;-64
2021/12/26 04:41:12;;;;;;;4.78;1.20;;;11.20;98.10;;;;;;4952471;28;20031;-65
2021/12/26 04:43:39;;;;;;;5.13;1.55;;;11.20;98.10;;;;;;4957748;28;20027;-64
2021/12/26 04:46:07;;;;;;;5.05;1.33;;;11.20;98.10;;;;;;4955942;28;20516;-64
2021/12/26 04:48:33;;;;;;;4.00;1.17;;;11.20;98.10;;;;;;4956233;28;20054;-64
2021/12/26 04:51:00;;;;;;;5.68;1.23;;;11.20;98.10;;;;;;4955895;28;20035;-64
2021/12/26 04:53:26;;;;;;;4.88;1.02;;;11.20;98.10;;;;;;4954154;28;20054;-64
2021/12/26 04:55:52;;;;;;;5.45;1.40;;;11.10;98.20;;;;;;4952659;28;20031;-64
2021/12/26 04:58:17;;;;;;;3.65;0.90;;;11.20;98.20;;;;;;4957526;28;20092;-64
2021/12/26 05:00:43;;;;;;;4.97;0.98;;;11.20;98.20;;;;;;4955579;28;20031;-64
2021/12/26 05:03:09;;;;;;;5.63;1.27;;;11.20;98.30;;;;;;4954903;28;20028;-65
2021/12/26 05:05:35;;;;;;;4.82;1.17;;;11.20;98.20;;;;;;4955080;28;20026;-64
2021/12/26 05:08:02;;;;;;;5.30;0.90;;;11.20;98.50;;;;;;4952332;28;20020;-64
2021/12/26 05:10:28;;;;;;;4.75;1.00;;;11.20;98.20;;;;;;4957498;28;20047;-64
2021/12/26 05:12:58;;;;;;;4.82;1.10;;;11.20;98.20;;;;;;4955811;28;20027;-64
2021/12/26 05:15:25;;;;;;;9.35;1.42;;;11.20;98.20;;;;;;4955163;28;20377;-65
2021/12/26 05:17:52;;;;;;;7.57;1.33;;;11.20;98.20;;;;;;4955515;28;20039;-64
2021/12/26 05:20:18;;;;;;;5.50;1.10;;;11.20;98.20;;;;;;4952467;28;20030;-64
2021/12/26 05:22:49;;;;;;;4.00;1.10;;;11.20;98.10;;;;;;4955628;28;20177;-65
2021/12/26 05:25:15;;;;;;;3.55;1.45;;;11.20;98.10;;;;;;4956663;28;20437;-64
2021/12/26 05:27:41;;;;;;;5.55;1.05;;;11.10;98.10;;;;;;4955377;28;20166;-64
2021/12/26 05:30:11;;;;;;;5.68;1.20;;;11.10;98.10;;;;;;4955142;28;20600;-65
2021/12/26 05:32:36;;;;;;;3.22;0.85;;;11.10;98.10;;;;;;4954719;28;20059;-66
2021/12/26 05:35:03;;;;;;;5.75;1.50;;;11.10;98.20;;;;;;4951796;28;20031;-64
2021/12/26 05:37:28;;;;;;;7.07;1.20;;;11.10;98.20;;;;;;4957137;28;20093;-65
2021/12/26 05:39:55;;;;;;;3.92;1.10;;;11.10;98.20;;;;;;4955308;28;20031;-64
2021/12/26 05:42:21;;;;;;;5.50;1.13;;;11.10;98.20;;;;;;4955258;28;20039;-64
2021/12/26 05:44:48;;;;;;;6.18;1.30;;;11.10;98.20;;;;;;4954939;28;20486;-64
2021/12/26 05:47:14;;;;;;;5.03;1.20;;;11.10;98.10;;;;;;4951518;28;20043;-64
2021/12/26 05:49:40;;;;;;;5.80;1.27;;;11.10;98.10;;;;;;4956148;28;20032;-64
2021/12/26 05:52:07;;;;;;;4.30;1.10;;;11.10;98.20;;;;;;4955407;28;20110;-64
2021/12/26 05:54:33;;;;;;;3.97;0.85;;;11.10;98.30;;;;;;4955082;28;20030;-64
2021/12/26 05:57:00;;;;;;;5.00;1.20;;;11.10;98.60;;;;;;4954676;28;20563;-64
2021/12/26 05:59:26;;;;;;;5.25;1.00;;;11.10;98.20;;;;;;4952504;28;20538;-64
2021/12/26 06:01:51;;;;;;;4.88;1.27;;;11.10;98.30;;;;;;4953297;28;20031;-64
2021/12/26 06:04:17;;;;;;;5.32;1.52;;;11.10;98.60;;;;;;4956422;28;20114;-64
2021/12/26 06:06:46;;;;;;;3.70;0.95;;;11.10;98.10;;;;;;4955016;28;20034;-64
2021/12/26 06:09:11;;;;;;;4.65;1.30;;;11.10;98.20;;;;;;4954731;28;20024;-64
2021/12/26 06:11:38;;;;;;;5.05;0.98;;;11.10;98.10;;;;;;4954471;28;20046;-64
2021/12/26 06:14:04;;;;;;;5.82;1.20;;;11.00;98.10;;;;;;4949106;28;20027;-64
2021/12/26 06:16:30;;;;;;;5.03;1.23;;;11.00;98.20;;;;;;4956706;28;20120;-64
2021/12/26 06:18:56;;;;;;;5.72;1.40;;;11.00;98.20;;;;;;4954778;28;20066;-64
2021/12/26 06:21:23;;;;;;;7.78;1.25;;;11.00;98.20;;;;;;4954382;28;20054;-64
2021/12/26 06:23:52;;;;;;;6.15;1.30;;;11.00;98.20;;;;;;4954588;28;20376;-64
2021/12/26 06:26:22;;;;;;;3.88;0.82;;;11.00;98.20;;;;;;4951507;28;20564;-64
2021/12/26 06:28:49;;;;;;;5.82;1.20;;;11.00;98.20;;;;;;4953281;28;20030;-64
2021/12/26 06:31:15;;;;;;;7.78;1.42;;;11.00;98.10;;;;;;4955802;28;20502;-64
2021/12/26 06:33:41;;;;;;;5.68;0.90;;;11.00;98.20;;;;;;4954492;28;20031;-64
2021/12/26 06:36:08;;;;;;;4.57;0.90;;;11.00;98.20;;;;;;4954248;28;20047;-64
2021/12/26 06:38:38;;;;;;;8.90;1.30;;;11.00;98.30;;;;;;4953435;28;20111;-64
2021/12/26 06:41:05;;;;;;;4.03;1.05;;;11.00;98.20;;;;;;4950293;28;20036;-64
2021/12/26 06:43:32;;;;;;;5.72;1.10;;;11.00;98.70;;;;;;4956287;28;20069;-64
2021/12/26 06:45:57;;;;;;;3.38;0.73;;;11.00;98.30;;;;;;4954215;28;20077;-64
2021/12/26 06:48:23;;;;;;;4.20;0.90;;;11.00;98.30;;;;;;4954409;28;20047;-64
2021/12/26 06:50:50;;;;;;;3.95;0.88;;;11.00;98.20;;;;;;4951839;28;20034;-64
2021/12/26 06:53:17;;;;;;;6.80;1.35;;;11.10;98.20;;;;;;4950928;28;20087;-64
2021/12/26 06:55:43;;;;;;;7.22;1.35;;;11.10;98.20;;;;;;4954120;28;20031;-64
2021/12/26 06:58:09;;;;;;;5.63;1.10;;;11.00;98.10;;;;;;4954832;28;20507;-64
2021/12/26 07:00:35;;;;;;;5.30;0.90;;;11.00;98.10;;;;;;4954273;28;20058;-64
2021/12/26 07:03:02;;;;;;;5.40;1.00;;;11.00;98.10;;;;;;4954069;28;20498;-64
2021/12/26 07:05:27;;;;;;;3.28;1.00;;;11.00;98.20;;;;;;4952134;28;20035;-64
2021/12/26 07:07:53;;;;;;;4.43;1.10;;;10.90;98.10;;;;;;4951985;28;20034;-64
2021/12/26 07:10:20;;;;;;;4.45;1.10;;;10.90;98.20;;;;;;4953346;28;20047;-64
2021/12/26 07:12:46;;;;;;;6.22;1.25;;;10.90;98.20;;;;;;4954134;28;20031;-64
2021/12/26 07:15:12;;;;;;;4.47;1.15;;;10.90;98.20;;;;;;4953676;28;20031;-64
2021/12/26 07:17:39;;;;;;;5.32;1.10;;;10.90;98.20;;;;;;4953553;28;20030;-64
2021/12/26 07:20:06;;;;;;;3.83;1.10;;;10.90;98.20;;;;;;4950001;28;20027;-64
2021/12/26 07:22:33;;;;;;;5.72;1.17;;;10.90;98.10;;;;;;4955613;28;20260;-65
2021/12/26 07:24:59;;;;;;;4.57;0.82;;;10.90;98.20;;;;;;4949877;28;20033;-64
2021/12/26 07:27:25;;;;;;;7.82;1.00;;;10.90;98.20;;;;;;4953530;28;20031;-63
2021/12/26 07:29:51;;;;;;;6.55;1.30;;;10.90;98.20;;;;;;4953688;28;20503;-64
2021/12/26 07:32:16;;;;;;;3.65;1.10;;;10.90;98.20;;;;;;4950511;28;20085;-64
2021/12/26 07:34:42;;;;;;;5.32;0.88;;;10.90;98.10;;;;;;4954011;28;20034;-64
2021/12/26 07:37:08;;;;;;;4.78;0.63;;;10.90;98.10;;;;;;4953022;28;20043;-64
2021/12/26 07:39:34;;;;;;;4.32;1.02;;;10.90;98.20;;;;;;4953007;28;20023;-63
2021/12/26 07:42:00;;;;;;;4.95;0.90;;;10.90;98.20;;;;;;4952184;28;20092;-64
2021/12/26 07:44:26;;;;;;;6.63;1.20;;;10.90;98.10;;;;;;4951640;28;20027;-64
2021/12/26 07:46:52;;;;;;;4.05;0.93;;;10.90;98.00;;;;;;4951739;28;20043;-63
2021/12/26 07:49:19;;;;;;;7.43;1.25;;;10.90;98.10;;;;;;4955173;28;20114;-63
2021/12/26 07:51:47;;;;;;;6.47;0.90;;;10.90;98.10;;;;;;4953376;28;20114;-63
2021/12/26 07:54:14;;;;;;;5.13;1.42;;;10.90;98.10;;;;;;4952977;28;20455;-64
2021/12/26 07:56:40;;;;;;;3.85;1.05;;;10.80;98.20;;;;;;4953088;28;20072;-64
2021/12/26 07:59:06;;;;;;;7.07;1.17;;;10.90;98.20;;;;;;4949379;28;20028;-64
2021/12/26 08:01:32;;;;;;;5.50;1.02;;;10.80;98.20;;;;;;4955535;28;20035;-64
2021/12/26 08:04:01;;;;;;;3.65;1.00;;;10.90;98.20;;;;;;4953093;28;20027;-64
2021/12/26 08:06:29;;;;;;;4.80;1.08;;;10.90;98.30;;;;;;4953531;28;20039;-64
2021/12/26 08:08:55;;;;;;;3.72;0.82;;;10.90;98.10;;;;;;4953066;28;20109;-64
2021/12/26 08:11:21;;;;;;;5.30;1.15;;;10.90;98.20;;;;;;4949107;28;20142;-64
2021/12/26 08:13:47;;;;;;;5.03;0.93;;;11.00;98.20;;;;;;4952823;28;20023;-64
2021/12/26 08:16:14;;;;;;;4.25;0.93;;;11.00;98.60;;;;;;4953904;28;20038;-64
2021/12/26 08:18:40;;;;;;;5.30;1.13;;;11.00;98.10;;;;;;4953251;28;20031;-64
2021/12/26 08:21:06;;;;;;;6.20;1.20;;;11.00;98.50;;;;;;4953107;28;20089;-64
2021/12/26 08:23:31;;;;;;;6.30;1.52;;;11.00;98.10;;;;;;4951403;28;20038;-64
2021/12/26 08:25:59;;;;;;;6.38;1.35;;;11.00;98.10;;;;;;4950258;28;20046;-64
2021/12/26 08:28:24;;;;;;;5.35;1.02;;;11.00;98.00;;;;;;4954975;28;20022;-64
2021/12/26 08:30:51;;;;;;;7.93;1.40;;;11.00;98.10;;;;;;4952931;28;20071;-64
2021/12/26 08:33:17;;;;;;;9.20;1.50;;;11.00;98.10;;;;;;4952820;28;20042;-64
2021/12/26 08:35:45;;;;;;;6.55;1.40;;;11.00;98.00;;;;;;4953030;28;20027;-64
2021/12/26 08:38:13;;;;;;;6.22;1.00;;;11.00;98.20;;;;;;4951764;28;20030;-64
2021/12/26 08:40:38;;;;;;;5.45;1.17;;;11.00;98.20;;;;;;4957643;28;20067;-65
2021/12/26 08:43:05;;;;;;;3.70;0.88;;;11.00;98.20;;;;;;4955107;28;20066;-64
2021/12/26 08:45:31;;;;;;;3.95;0.90;;;11.10;98.20;;;;;;4956054;28;20027;-65
2021/12/26 08:47:57;;;;;;;4.88;1.02;;;11.10;98.20;;;;;;4956026;28;20660;-65
2021/12/26 08:50:25;;;;;;;5.97;1.23;;;11.10;98.20;;;;;;4952339;28;20438;-65
2021/12/26 08:52:51;;;;;;;7.40;2.35;;;11.10;98.20;;;;;;4954007;28;20042;-65
2021/12/26 08:55:18;;;;;;;6.68;1.70;;;11.10;98.20;;;;;;4957477;28;20106;-64
2021/12/26 08:57:44;;;;;;;5.70;1.63;;;11.10;98.20;;;;;;4955875;28;20043;-64
2021/12/26 09:00:11;;;;;;;6.28;1.30;;;11.10;98.10;;;;;;4955849;28;20644;-64
2021/12/26 09:02:37;;;;;;;5.05;1.33;;;11.10;98.10;;;;;;4955165;28;20039;-64
2021/12/26 09:05:04;;;;;;;3.92;1.00;;;11.20;98.20;;;;;;4952046;28;20112;-64
2021/12/26 09:07:30;;;;;;;10.95;1.23;;;11.10;98.10;;;;;;4957271;28;20476;-64
2021/12/26 09:09:58;;;;;;;5.00;0.95;;;11.10;98.20;;;;;;4955735;28;20054;-64
2021/12/26 09:12:24;;;;;;;7.45;1.20;;;11.10;98.10;;;;;;4955512;28;20519;-64
2021/12/26 09:14:50;;;;;;;6.00;1.27;;;11.20;98.10;;;;;;4955501;28;20030;-64
2021/12/26 09:17:16;;;;;;;6.35;1.10;;;11.10;98.10;;;;;;4952035;28;20609;-64
2021/12/26 09:19:42;;;;;;;4.85;0.88;;;11.20;98.20;;;;;;4956424;28;20019;-64
2021/12/26 09:22:10;;;;;;;8.85;1.38;;;11.20;98.10;;;;;;4954228;28;20035;-64
2021/12/26 09:24:38;;;;;;;5.53;0.93;;;11.20;98.20;;;;;;4955441;28;20437;-64
2021/12/26 09:27:04;;;;;;;4.35;1.05;;;11.20;98.20;;;;;;4955480;28;20126;-64
2021/12/26 09:29:30;;;;;;;5.32;1.20;;;11.20;98.10;;;;;;4953812;28;20102;-64
2021/12/26 09:31:56;;;;;;;9.85;1.02;;;11.20;98.10;;;;;;4952669;28;20441;-64
2021/12/26 09:34:24;;;;;;;6.40;1.20;;;11.20;98.10;;;;;;4957176;28;20035;-64
2021/12/26 09:36:50;;;;;;;9.23;1.10;;;11.20;98.10;;;;;;4954860;28;20096;-64
2021/12/26 09:39:17;;;;;;;6.95;1.10;;;11.20;98.10;;;;;;4953849;28;20035;-64
2021/12/26 09:41:42;;;;;;;3.95;1.00;;;11.20;98.20;;;;;;4955279;28;20101;-64
2021/12/26 09:44:09;;;;;;;5.65;1.30;;;11.20;98.20;;;;;;4935775;28;20477;-64
2021/12/26 09:46:35;;;;;;;4.85;1.17;;;11.20;98.60;;;;;;4957063;28;20398;-64
2021/12/26 09:49:01;;;;;;;6.03;1.25;;;11.30;98.20;;;;;;4954539;28;20130;-64
2021/12/26 09:51:28;;;;;;;6.00;1.27;;;11.20;98.10;;;;;;4954592;28;20114;-64
2021/12/26 09:53:54;;;;;;;4.55;0.90;;;11.20;98.10;;;;;;4954907;28;20038;-64
2021/12/26 09:56:19;;;;;;;4.03;1.23;;;11.20;98.10;;;;;;4951973;28;20043;-64
2021/12/26 09:59:15;;;;;;;9.25;1.70;;;11.20;98.10;;;;;;4955094;28;20031;-64
2021/12/26 10:01:43;;;;;;;10.30;1.70;;;11.20;98.10;;;;;;4965276;28;20039;-64
2021/12/26 10:04:24;;;;;;;5.30;1.73;;;11.30;98.10;;;;;;4953657;28;20514;-64
2021/12/26 10:06:56;;;;;;;7.35;1.80;;;11.20;98.50;;;;;;4954936;28;20035;-64
2021/12/26 10:09:22;;;;;;;5.25;1.20;;;11.20;98.10;;;;;;4954696;28;20023;-64
2021/12/26 10:11:51;;;;;;;9.25;1.25;;;11.20;98.10;;;;;;4954901;28;20061;-64
2021/12/26 10:14:22;;;;;;;9.10;2.47;;;11.20;98.10;;;;;;4951403;28;20480;-64
2021/12/26 10:16:51;;;;;;;5.75;1.40;;;11.30;98.20;;;;;;4954093;28;20043;-64
2021/12/26 10:19:18;;;;;;;5.07;1.13;;;11.20;98.20;;;;;;4955879;28;20108;-64
2021/12/26 10:21:56;;;;;;;4.35;1.10;;;11.20;98.30;;;;;;4954702;28;20042;-64
2021/12/26 10:24:37;;;;;;;4.43;1.05;;;11.30;98.70;;;;;;4954600;28;20205;-64
2021/12/26 10:27:07;;;;;;;4.25;1.13;;;11.30;98.30;;;;;;4954523;28;20043;-64
2021/12/26 10:29:35;;;;;;;4.90;1.25;;;11.30;98.20;;;;;;4953228;28;20514;-64
2021/12/26 10:32:04;;;;;;;3.75;0.90;;;11.20;98.20;;;;;;4951173;28;20492;-64
2021/12/26 10:34:40;;;;;;;4.53;1.10;;;11.20;98.30;;;;;;4956084;28;20490;-64
2021/12/26 10:37:09;;;;;;;3.97;0.90;;;11.30;98.30;;;;;;4954701;28;20035;-64
2021/12/26 10:39:45;;;;;;;3.65;0.85;;;11.30;98.30;;;;;;4954252;28;20019;-64
2021/12/26 10:42:28;;;;;;;2.95;0.73;;;11.30;98.30;;;;;;4954407;28;20027;-64
2021/12/26 10:44:56;;;;;;;3.50;0.93;;;11.20;98.30;;;;;;4952982;28;20019;-64
2021/12/26 10:47:25;;;;;;;3.85;1.02;;;11.30;98.30;;;;;;4951560;28;20035;-64
2021/12/26 10:49:58;;;;;;;3.47;1.00;;;11.30;98.30;;;;;;4952462;28;20035;-64
2021/12/26 10:52:28;;;;;;;4.82;1.27;;;11.30;98.40;;;;;;4954585;28;20024;-64
2021/12/26 10:55:03;;;;;;;4.70;1.98;;;11.30;98.40;;;;;;4954019;28;20120;-65
2021/12/26 10:57:40;;;;;;;4.18;1.60;;;11.30;98.50;;;;;;4954216;28;20038;-64
2021/12/26 11:00:10;;;;;;;3.08;1.20;;;11.30;98.50;;;;;;4953200;28;20122;-64
2021/12/26 11:02:40;;;;;;;5.15;1.63;;;11.30;98.60;;;;;;4952876;28;20027;-64
2021/12/26 11:05:12;;;;;;;4.20;1.40;;;11.40;98.60;;;;;;4950115;28;20062;-64
2021/12/26 11:07:44;;;;;;;3.70;1.30;;;11.40;98.60;;;;;;4963365;28;20027;-65
2021/12/26 11:10:14;;;;;;;3.38;1.40;;;11.40;98.70;;;;;;4953094;28;20043;-65
2021/12/26 11:12:46;;;;;;;3.55;1.30;;;11.50;98.80;;;;;;4953964;28;20035;-65
2021/12/26 11:15:13;;;;;;;3.80;1.17;;;11.60;98.80;;;;;;4953773;28;20101;-64
2021/12/26 11:17:44;;;;;;;2.88;1.15;;;11.60;98.70;;;;;;4953279;28;20039;-64
2021/12/26 11:20:21;;;;;;;3.83;1.23;;;11.70;98.60;;;;;;4934780;28;20023;-64
2021/12/26 11:22:47;;;;;;;4.68;1.88;;;11.80;98.50;;;;;;4963582;28;20023;-64
2021/12/26 11:25:13;;;;;;;3.15;1.10;;;11.80;98.50;;;;;;4954954;28;20157;-64
2021/12/26 11:27:39;;;;;;;4.00;1.25;;;11.90;98.70;;;;;;4953669;28;20043;-64
2021/12/26 11:30:07;;;;;;;3.47;1.40;;;12.10;98.70;;;;;;4953757;28;20028;-64
2021/12/26 11:32:34;;;;;;;2.08;1.10;;;12.10;98.50;;;;;;4951975;28;20049;-64
2021/12/26 11:35:00;;;;;;;3.67;1.30;;;12.30;99.30;;;;;;4950619;28;20031;-64
2021/12/26 11:37:27;;;;;;;2.10;1.30;;;12.70;99.20;;;;;;4955348;28;20042;-64
2021/12/26 11:39:55;;;;;;;3.22;1.67;;;12.70;98.40;;;;;;4953575;28;20077;-65
2021/12/26 11:42:44;;;;;;;3.38;1.20;;;12.70;97.90;;;;;;4953490;28;20032;-64
2021/12/26 11:45:28;;;;;;;4.82;1.60;;;12.60;97.60;;;;;;4953495;28;20030;-64
2021/12/26 11:48:11;;;;;;;2.72;1.35;;;12.60;98.00;;;;;;4953567;28;20027;-64
2021/12/26 11:51:02;;;;;;;2.58;1.13;;;12.60;98.20;;;;;;4951534;28;20117;-64
2021/12/26 11:53:43;;;;;;;4.78;1.50;;;12.70;98.20;;;;;;4938594;28;20042;-64
2021/12/26 11:56:18;;;;;;;3.30;1.20;;;12.90;98.50;;;;;;4934032;28;20040;-64
2021/12/26 11:59:08;;;;;;;2.50;1.10;;;13.20;98.70;;;;;;4962844;28;20031;-64
2021/12/26 12:01:40;;;;;;;3.60;1.70;;;13.60;98.60;;;;;;4955167;28;20036;-64
2021/12/26 12:04:17;;;;;;;2.88;1.55;;;14.10;99.30;;;;;;4953476;28;20035;-64
2021/12/26 12:06:44;;;;;;;3.72;1.45;;;14.70;99.00;;;;;;4953370;28;20164;-63
2021/12/26 12:09:27;;;;;;;3.38;1.23;;;15.70;99.40;;;;;;4953209;28;20020;-64
2021/12/26 12:12:03;;;;;;;2.88;1.13;;;15.80;95.70;;;;;;4955096;28;20075;-64
2021/12/26 12:14:48;;;;;;;3.17;1.08;;;15.60;94.30;;;;;;4954439;28;20055;-65
2021/12/26 12:17:22;;;;;;;2.70;0.98;;;15.10;94.20;;;;;;4938017;28;20131;-64
2021/12/26 12:20:20;;;;;;;2.33;1.20;;;14.70;94.70;;;;;;4955795;28;20093;-64
2021/12/26 12:23:04;;;;;;;4.72;1.30;;;15.10;96.90;;;;;;4954323;28;20561;-63
2021/12/26 12:25:36;;;;;;;2.92;1.15;;;14.90;95.20;;;;;;4958123;28;20035;-64
2021/12/26 12:28:13;;;;;;;2.17;1.20;;;14.70;94.60;;;;;;4956290;28;20037;-64
2021/12/26 12:30:42;;;;;;;3.42;1.10;;;14.30;94.60;;;;;;4955955;28;20019;-64
2021/12/26 12:33:19;;;;;;;2.08;1.00;;;14.10;95.30;;;;;;4956390;28;20031;-63
2021/12/26 12:35:51;;;;;;;3.22;1.17;;;13.90;95.40;;;;;;4956222;28;20033;-63
2021/12/26 12:38:28;;;;;;;5.97;1.47;;;13.80;95.80;;;;;;4951943;28;20039;-64
2021/12/26 12:40:55;;;;;;;4.30;1.00;;;13.70;95.60;;;;;;4953692;28;20443;-64
2021/12/26 12:43:23;;;;;;;4.47;1.02;;;13.80;96.30;;;;;;4957954;28;20396;-64
2021/12/26 12:45:55;;;;;;;3.63;0.80;;;14.50;98.70;;;;;;4955655;28;20110;-63
2021/12/26 12:48:26;;;;;;;3.53;1.02;;;15.40;98.00;;;;;;4956161;28;20043;-64
2021/12/26 12:50:58;;;;;;;2.80;0.90;;;15.90;96.00;;;;;;4956005;28;20014;-64
2021/12/26 12:53:44;;;;;;;5.75;0.90;;;16.30;96.00;;;;;;4953617;28;20085;-64
2021/12/26 12:56:30;;;;;;;4.03;0.95;;;16.70;95.20;;;;;;4936919;28;20412;-64